createdAt,value
2023-02-15T00:00:24.038Z,51.30
2023-02-15T00:02:52.454Z,51.80
2023-02-15T00:05:20.816Z,50.80
2023-02-15T00:07:49.325Z,46.80
2023-02-15T00:10:17.823Z,45.60
2023-02-15T00:12:46.054Z,49.70
2023-02-15T00:15:14.229Z,53.40
2023-02-15T00:17:42.646Z,54.00
2023-02-15T00:20:11.206Z,53.30
2023-02-15T00:22:39.415Z,49.80
2023-02-15T00:25:07.971Z,48.00
2023-02-15T00:27:36.184Z,46.90
2023-02-15T00:30:04.623Z,45.90
2023-02-15T00:32:35.564Z,45.30
2023-02-15T00:35:03.894Z,44.40
2023-02-15T00:37:32.261Z,43.70
2023-02-15T00:40:00.553Z,43.00
2023-02-15T00:42:28.820Z,42.50
2023-02-15T00:44:57.071Z,42.10
2023-02-15T00:47:25.269Z,41.50
2023-02-15T00:49:53.620Z,41.00
2023-02-15T00:52:21.831Z,40.40
2023-02-15T00:54:50.061Z,40.10
2023-02-15T00:57:18.383Z,39.80
2023-02-15T00:59:49.437Z,39.20
2023-02-15T01:02:17.669Z,39.10
2023-02-15T01:04:48.397Z,39.10
2023-02-15T01:07:17.800Z,38.70
2023-02-15T01:09:46.017Z,39.00
2023-02-15T01:12:14.391Z,38.60
2023-02-15T01:14:42.602Z,38.40
2023-02-15T01:17:11.028Z,38.20
2023-02-15T01:19:39.423Z,37.80
2023-02-15T01:22:11.224Z,37.60
2023-02-15T01:24:39.517Z,36.80
2023-02-15T01:27:07.826Z,38.50
2023-02-15T01:29:36.093Z,42.10
2023-02-15T01:32:04.949Z,45.00
2023-02-15T01:34:33.572Z,47.70
2023-02-15T01:37:02.044Z,49.40
2023-02-15T01:39:30.285Z,50.70
2023-02-15T01:41:58.561Z,51.50
2023-02-15T01:44:49.814Z,51.90
2023-02-15T01:47:45.619Z,51.90
2023-02-15T01:50:16.898Z,47.40
2023-02-15T01:53:32.630Z,46.00
2023-02-15T01:56:08.535Z,50.10
2023-02-15T01:58:38.197Z,54.00
2023-02-15T02:01:09.691Z,53.90
2023-02-15T02:04:08.190Z,53.20
2023-02-15T02:06:38.900Z,49.50
2023-02-15T02:09:11.126Z,47.40
2023-02-15T02:11:41.860Z,46.60
2023-02-15T02:14:14.464Z,45.50
2023-02-15T02:16:55.124Z,44.80
2023-02-15T02:19:34.606Z,43.70
2023-02-15T02:22:24.186Z,43.00
2023-02-15T02:25:20.415Z,42.40
2023-02-15T02:28:19.245Z,41.70
2023-02-15T02:31:24.597Z,40.90
2023-02-15T02:34:20.479Z,40.20
2023-02-15T02:36:52.008Z,39.80
2023-02-15T02:39:59.797Z,39.80
2023-02-15T02:42:46.075Z,39.70
2023-02-15T02:45:37.634Z,38.80
2023-02-15T02:48:15.659Z,38.40
2023-02-15T02:50:43.946Z,38.40
2023-02-15T02:53:12.793Z,38.70
2023-02-15T02:55:58.874Z,38.40
2023-02-15T03:01:41.415Z,43.50
2023-02-15T03:04:23.249Z,48.00
2023-02-15T03:07:10.258Z,49.90
2023-02-15T03:09:41.470Z,51.00
2023-02-15T03:12:25.160Z,52.00
2023-02-15T03:15:17.542Z,52.60
2023-02-15T03:17:52.768Z,52.50
2023-02-15T03:20:27.663Z,49.30
2023-02-15T03:23:08.653Z,46.80
2023-02-15T03:26:04.363Z,47.30
2023-02-15T03:28:45.065Z,52.90
2023-02-15T03:31:16.658Z,54.50
2023-02-15T03:34:00.887Z,53.70
2023-02-15T03:37:14.169Z,53.10
2023-02-15T03:39:51.356Z,48.80
2023-02-15T03:42:27.417Z,47.00
2023-02-15T03:45:12.504Z,45.90
2023-02-15T03:47:47.898Z,45.00
2023-02-15T03:50:20.377Z,44.10
2023-02-15T03:52:48.642Z,43.50
2023-02-15T03:55:17.045Z,42.80
2023-02-15T03:57:45.800Z,42.20
2023-02-15T04:00:25.821Z,41.40
2023-02-15T04:03:40.930Z,40.80
2023-02-15T04:06:09.432Z,40.30
2023-02-15T04:08:37.535Z,39.80
2023-02-15T04:11:05.883Z,39.90
2023-02-15T04:13:34.645Z,39.40
2023-02-15T04:16:03.290Z,41.50
2023-02-15T04:18:35.549Z,44.80
2023-02-15T04:21:03.812Z,47.80
2023-02-15T04:23:32.840Z,49.60
2023-02-15T04:26:04.013Z,51.10
2023-02-15T04:28:32.795Z,52.60
2023-02-15T04:31:01.138Z,52.40
2023-02-15T04:33:29.474Z,52.40
2023-02-15T04:35:57.745Z,52.70
2023-02-15T04:38:25.966Z,48.40
2023-02-15T04:40:54.674Z,46.70
2023-02-15T04:43:22.888Z,48.30
2023-02-15T04:45:51.981Z,53.20
2023-02-15T04:48:20.417Z,54.80
2023-02-15T04:50:48.811Z,53.90
2023-02-15T04:53:17.133Z,53.70
2023-02-15T04:55:45.630Z,50.00
2023-02-15T04:58:13.941Z,47.80
2023-02-15T05:00:42.177Z,46.70
2023-02-15T05:03:10.632Z,45.40
2023-02-15T05:05:39.157Z,44.70
2023-02-15T05:08:07.496Z,43.80
2023-02-15T05:10:35.751Z,43.10
2023-02-15T05:13:04.176Z,42.30
2023-02-15T05:15:32.405Z,42.10
2023-02-15T05:18:00.700Z,41.90
2023-02-15T05:20:29.502Z,41.00
2023-02-15T05:22:57.906Z,40.50
2023-02-15T05:25:26.134Z,40.60
2023-02-15T05:27:54.550Z,40.30
2023-02-15T05:30:22.759Z,39.60
2023-02-15T05:32:51.396Z,39.50
2023-02-15T05:35:19.918Z,39.10
2023-02-15T05:37:48.264Z,39.10
2023-02-15T05:40:16.584Z,38.40
2023-02-15T05:42:44.879Z,38.40
2023-02-15T05:45:13.193Z,41.20
2023-02-15T05:47:41.480Z,44.90
2023-02-15T05:50:10.517Z,48.00
2023-02-15T05:52:39.122Z,49.90
2023-02-15T05:55:07.789Z,51.60
2023-02-15T05:57:36.827Z,52.30
2023-02-15T06:00:06.779Z,52.70
2023-02-15T06:02:43.611Z,52.80
2023-02-15T06:05:11.941Z,52.60
2023-02-15T06:07:40.210Z,51.40
2023-02-15T06:10:09.101Z,47.70
2023-02-15T06:12:37.286Z,46.50
2023-02-15T06:15:06.503Z,50.50
2023-02-15T06:17:34.676Z,54.10
2023-02-15T06:20:02.954Z,55.20
2023-02-15T06:22:31.342Z,54.30
2023-02-15T06:24:59.440Z,54.00
2023-02-15T06:27:27.819Z,51.10
2023-02-15T06:29:56.159Z,48.60
2023-02-15T06:32:24.499Z,47.30
2023-02-15T06:34:52.818Z,46.30
2023-02-15T06:37:21.085Z,45.30
2023-02-15T06:39:49.472Z,44.70
2023-02-15T06:42:17.652Z,44.60
2023-02-15T06:44:46.693Z,49.40
2023-02-15T06:47:15.028Z,51.90
2023-02-15T07:01:41.764Z,57.30
2023-02-15T07:04:37.494Z,56.60
2023-02-15T07:10:29.731Z,50.10
2023-02-15T07:12:58.707Z,50.00
2023-02-15T07:15:27.002Z,52.90
2023-02-15T07:17:59.357Z,57.30
2023-02-15T07:20:30.997Z,59.50
2023-02-15T07:23:25.635Z,61.70
2023-02-15T07:26:02.147Z,63.50
2023-02-15T07:28:30.812Z,63.20
2023-02-15T07:30:59.234Z,64.30
2023-02-15T07:33:27.677Z,61.40
2023-02-15T07:36:01.538Z,58.10
2023-02-15T07:38:44.006Z,55.60
2023-02-15T07:41:17.699Z,54.00
2023-02-15T07:43:47.162Z,52.40
2023-02-15T07:46:17.072Z,51.50
2023-02-15T07:48:49.463Z,50.90
2023-02-15T07:51:18.226Z,50.10
2023-02-15T07:53:46.248Z,49.50
2023-02-15T07:56:16.164Z,48.90
2023-02-15T07:58:44.453Z,48.40
2023-02-15T08:01:13.023Z,47.70
2023-02-15T08:03:41.363Z,47.40
2023-02-15T08:06:09.925Z,47.00
2023-02-15T08:08:38.677Z,46.60
2023-02-15T08:11:18.886Z,46.60
2023-02-15T08:13:48.465Z,47.60
2023-02-15T08:16:16.703Z,51.30
2023-02-15T08:18:45.000Z,56.20
2023-02-15T08:21:13.192Z,59.30
2023-02-15T08:23:41.608Z,61.70
2023-02-15T08:26:09.818Z,63.50
2023-02-15T08:28:39.805Z,66.00
2023-02-15T08:31:13.580Z,69.00
2023-02-15T08:34:23.515Z,68.50
2023-02-15T08:36:51.888Z,68.20
2023-02-15T08:39:21.884Z,66.10
2023-02-15T08:41:50.886Z,61.90
2023-02-15T08:44:20.644Z,60.20
2023-02-15T08:46:50.420Z,57.90
2023-02-15T08:49:23.130Z,56.60
2023-02-15T08:51:51.888Z,55.00
2023-02-15T08:54:21.325Z,53.80
2023-02-15T08:56:50.018Z,52.90
2023-02-15T08:59:19.757Z,52.00
2023-02-15T09:01:49.439Z,51.20
2023-02-15T09:04:20.400Z,50.10
2023-02-15T09:06:52.520Z,49.70
2023-02-15T09:09:21.536Z,49.90
2023-02-15T09:11:58.825Z,49.20
2023-02-15T09:14:28.809Z,49.40
2023-02-15T09:16:57.253Z,49.10
2023-02-15T09:19:26.091Z,50.60
2023-02-15T09:21:56.021Z,54.70
2023-02-15T09:24:24.545Z,58.30
2023-02-15T09:26:52.899Z,60.90
2023-02-15T09:29:21.529Z,63.10
2023-02-15T09:31:51.263Z,64.90
2023-02-15T09:34:22.134Z,64.90
2023-02-15T09:36:53.661Z,66.70
2023-02-15T09:39:24.764Z,68.40
2023-02-15T09:42:17.921Z,67.90
2023-02-15T09:44:53.689Z,69.50
2023-02-15T09:47:43.891Z,68.70
2023-02-15T09:50:49.058Z,64.20
2023-02-15T09:53:47.900Z,61.90
2023-02-15T09:56:31.576Z,59.90
2023-02-15T09:59:16.758Z,57.70
2023-02-15T10:01:56.807Z,56.40
2023-02-15T10:04:36.877Z,55.10
2023-02-15T10:07:11.029Z,53.50
2023-02-15T10:09:45.222Z,52.30
2023-02-15T10:12:24.342Z,51.30
2023-02-15T10:15:29.059Z,50.10
2023-02-15T10:17:57.346Z,49.30
2023-02-15T10:20:53.165Z,48.40
2023-02-15T10:23:43.948Z,48.10
2023-02-15T10:26:20.138Z,46.60
2023-02-15T10:29:06.671Z,45.90
2023-02-15T10:31:52.670Z,45.50
2023-02-15T10:34:22.288Z,44.80
2023-02-15T10:37:13.657Z,44.50
2023-02-15T10:40:19.027Z,45.00
2023-02-15T10:43:05.504Z,44.40
2023-02-15T10:46:02.649Z,43.50
2023-02-15T10:48:52.415Z,43.60
2023-02-15T10:51:40.870Z,45.10
2023-02-15T10:54:19.211Z,50.00
2023-02-15T10:57:24.638Z,53.00
2023-02-15T11:00:04.343Z,55.20
2023-02-15T11:02:59.784Z,57.00
2023-02-15T11:05:52.684Z,59.10
2023-02-15T11:08:21.576Z,60.40
2023-02-15T11:10:52.485Z,60.20
2023-02-15T11:13:24.038Z,61.20
2023-02-15T11:16:22.403Z,61.00
2023-02-15T11:18:53.096Z,60.80
2023-02-15T11:21:42.145Z,57.20
2023-02-15T11:24:19.630Z,54.90
2023-02-15T11:26:51.713Z,53.30
2023-02-15T11:29:43.318Z,51.90
2023-02-15T11:37:28.297Z,52.00
2023-02-15T11:39:56.850Z,53.50
2023-02-15T11:42:27.172Z,57.20
2023-02-15T11:45:09.080Z,59.30
2023-02-15T11:47:37.302Z,61.40
2023-02-15T11:50:05.851Z,63.00
2023-02-15T11:52:33.970Z,63.60
2023-02-15T11:55:02.730Z,64.40
2023-02-15T11:57:40.733Z,64.70
2023-02-15T12:00:19.210Z,64.60
2023-02-15T12:02:51.912Z,58.90
2023-02-15T12:05:23.971Z,56.30
2023-02-15T12:08:11.215Z,55.10
2023-02-15T12:10:57.831Z,53.40
2023-02-15T12:13:26.262Z,52.10
2023-02-15T12:15:59.158Z,51.00
2023-02-15T12:18:39.420Z,49.90
2023-02-15T12:21:38.319Z,48.70
2023-02-15T12:24:20.096Z,48.00
2023-02-15T12:27:03.248Z,47.30
2023-02-15T12:29:57.120Z,46.80
2023-02-15T12:32:31.571Z,46.00
2023-02-15T12:35:15.983Z,45.00
2023-02-15T12:38:14.592Z,44.30
2023-02-15T12:40:43.010Z,43.90
2023-02-15T12:43:29.250Z,43.40
2023-02-15T12:46:23.373Z,43.00
2023-02-15T12:49:31.199Z,42.60
2023-02-15T12:52:05.964Z,42.80
2023-02-15T12:54:41.117Z,42.40
2023-02-15T12:57:17.066Z,41.70
2023-02-15T12:59:56.808Z,44.90
2023-02-15T13:02:42.197Z,48.90
2023-02-15T13:05:31.361Z,51.90
2023-02-15T13:08:24.168Z,54.00
2023-02-15T13:11:04.943Z,56.00
2023-02-15T13:13:36.586Z,57.60
2023-02-15T13:16:11.334Z,58.70
2023-02-15T13:18:48.646Z,58.90
2023-02-15T13:21:29.912Z,59.30
2023-02-15T13:24:07.849Z,59.10
2023-02-15T13:26:37.330Z,57.60
2023-02-15T13:29:16.995Z,53.70
2023-02-15T13:31:47.073Z,52.30
2023-02-15T13:34:39.980Z,50.90
2023-02-15T13:37:34.981Z,49.60
2023-02-15T13:40:30.349Z,48.80
2023-02-15T13:43:21.836Z,47.50
2023-02-15T13:45:59.164Z,46.70
2023-02-15T13:48:53.580Z,45.80
2023-02-15T13:51:37.836Z,44.80
2023-02-15T13:54:12.172Z,44.60
2023-02-15T13:57:18.601Z,43.90
2023-02-15T14:00:03.258Z,43.20
2023-02-15T14:03:02.999Z,43.00
2023-02-15T14:06:01.865Z,42.70
2023-02-15T14:08:44.518Z,42.00
2023-02-15T14:11:40.623Z,42.40
2023-02-15T14:14:27.320Z,42.10
2023-02-15T14:17:07.929Z,41.20
2023-02-15T14:19:47.930Z,40.80
2023-02-15T14:22:31.301Z,40.20
2023-02-15T14:24:59.561Z,42.40
2023-02-15T14:27:50.640Z,45.60
2023-02-15T14:30:32.481Z,48.80
2023-02-15T14:33:26.968Z,51.70
2023-02-15T14:35:56.016Z,53.20
2023-02-15T14:38:44.962Z,54.30
2023-02-15T14:41:46.673Z,54.80
2023-02-15T14:44:34.368Z,54.40
2023-02-15T14:47:18.020Z,52.40
2023-02-15T14:49:47.282Z,49.90
2023-02-15T14:52:15.682Z,51.60
2023-02-15T14:54:43.828Z,55.40
2023-02-15T14:57:12.063Z,59.50
2023-02-15T14:59:52.328Z,59.00
2023-02-15T15:02:49.454Z,58.00
2023-02-15T15:05:35.720Z,53.40
2023-02-15T15:08:06.217Z,51.40
2023-02-15T15:10:36.361Z,50.00
2023-02-15T15:13:46.124Z,48.80
2023-02-15T15:16:37.150Z,47.70
2023-02-15T15:19:11.525Z,46.80
2023-02-15T15:21:51.857Z,45.80
2023-02-15T15:24:38.571Z,45.10
2023-02-15T15:27:45.112Z,44.50
2023-02-15T15:30:16.559Z,44.10
2023-02-15T15:32:58.058Z,43.30
2023-02-15T15:35:49.603Z,43.30
2023-02-15T15:38:36.684Z,43.40
2023-02-15T15:41:19.120Z,42.60
2023-02-15T15:44:05.692Z,42.30
2023-02-15T15:46:50.932Z,42.00
2023-02-15T15:49:25.146Z,41.30
2023-02-15T15:51:54.009Z,41.20
2023-02-15T15:54:28.116Z,41.10
2023-02-15T15:56:59.733Z,40.90
2023-02-15T15:59:32.400Z,40.80
2023-02-15T16:02:09.451Z,40.40
2023-02-15T16:04:37.698Z,40.40
2023-02-15T16:07:18.407Z,40.20
2023-02-15T16:10:02.284Z,40.60
2023-02-15T16:12:34.133Z,40.30
2023-02-15T16:15:24.604Z,40.20
2023-02-15T16:17:59.649Z,39.80
2023-02-15T16:20:37.530Z,39.90
2023-02-15T16:23:25.796Z,39.30
2023-02-15T16:26:38.372Z,39.20
2023-02-15T16:29:17.291Z,39.00
2023-02-15T16:31:58.475Z,39.00
2023-02-15T16:34:26.683Z,39.30
2023-02-15T16:37:13.305Z,38.80
2023-02-15T16:39:45.703Z,38.60
2023-02-15T16:42:16.384Z,38.60
2023-02-15T16:44:51.758Z,38.50
2023-02-15T16:47:27.884Z,38.40
2023-02-15T16:49:59.471Z,38.20
2023-02-15T16:52:29.530Z,38.40
2023-02-15T16:55:03.459Z,38.10
2023-02-15T16:57:38.137Z,37.80
2023-02-15T17:00:18.606Z,37.60
2023-02-15T17:03:01.755Z,37.10
2023-02-15T17:05:45.720Z,37.70
2023-02-15T17:08:18.352Z,40.30
2023-02-15T17:11:11.401Z,43.00
2023-02-15T17:13:40.623Z,46.90
2023-02-15T17:16:28.682Z,49.70
2023-02-15T17:18:57.156Z,51.40
2023-02-15T17:21:29.599Z,52.10
2023-02-15T17:24:05.363Z,52.60
2023-02-15T17:26:36.579Z,49.00
2023-02-15T17:29:20.792Z,46.90
2023-02-15T17:31:52.429Z,47.00
2023-02-15T17:34:48.272Z,52.20
2023-02-15T17:37:39.563Z,54.00
2023-02-15T17:40:16.774Z,53.30
2023-02-15T17:42:45.013Z,50.70
2023-02-15T17:45:15.379Z,48.10
2023-02-15T17:47:44.441Z,46.80
2023-02-15T17:50:25.488Z,45.80
2023-02-15T17:52:55.034Z,45.00
2023-02-15T17:55:25.029Z,44.00
2023-02-15T18:00:17.368Z,42.60
2023-02-15T18:02:46.690Z,45.30
2023-02-15T18:05:16.382Z,49.60
2023-02-15T18:07:45.055Z,52.10
2023-02-15T18:10:21.497Z,53.90
2023-02-15T18:12:49.863Z,55.80
2023-02-15T18:15:18.261Z,56.90
2023-02-15T18:17:47.827Z,56.60
2023-02-15T18:20:19.268Z,56.90
2023-02-15T18:23:01.756Z,52.00
2023-02-15T18:25:30.382Z,50.00
2023-02-15T18:28:01.611Z,48.30
2023-02-15T18:30:30.512Z,47.30
2023-02-15T18:33:03.393Z,46.40
2023-02-15T18:35:33.933Z,45.50
2023-02-15T18:38:02.727Z,44.50
2023-02-15T18:46:26.776Z,45.00
2023-02-15T18:48:55.012Z,46.60
2023-02-15T18:51:24.618Z,47.00
2023-02-15T18:53:54.520Z,44.80
2023-02-15T18:56:23.932Z,44.40
2023-02-15T18:58:52.060Z,43.20
2023-02-15T19:01:22.124Z,42.80
2023-02-15T19:04:01.924Z,42.30
2023-02-15T19:06:33.499Z,42.00
2023-02-15T19:09:07.557Z,41.70
2023-02-15T19:11:36.693Z,41.00
2023-02-15T19:14:27.722Z,40.60
2023-02-15T19:17:00.474Z,40.20
2023-02-15T19:23:36.216Z,40.10
2023-02-15T19:26:05.115Z,41.00
2023-02-15T19:28:35.062Z,44.50
2023-02-15T19:31:03.455Z,47.40
2023-02-15T19:33:32.098Z,50.20
2023-02-15T19:36:00.663Z,51.60
2023-02-15T19:38:33.309Z,52.80
2023-02-15T19:41:30.928Z,54.20
2023-02-15T19:44:01.689Z,54.40
2023-02-15T19:46:34.164Z,50.30
2023-02-15T19:49:07.001Z,48.00
2023-02-15T19:51:37.424Z,46.70
2023-02-15T19:54:16.953Z,45.50
2023-02-15T19:56:45.324Z,45.10
2023-02-15T19:59:36.836Z,44.10
2023-02-15T20:02:05.896Z,43.30
2023-02-15T20:04:34.610Z,42.70
2023-02-15T20:07:03.237Z,42.30
2023-02-15T20:09:34.035Z,41.50
2023-02-15T20:12:02.518Z,41.50
2023-02-15T20:14:30.954Z,40.60
2023-02-15T20:16:59.476Z,40.20
2023-02-15T20:19:27.810Z,39.90
2023-02-15T20:21:57.360Z,39.50
2023-02-15T20:24:29.246Z,38.90
2023-02-15T20:26:57.653Z,38.40
2023-02-15T20:29:26.182Z,38.70
2023-02-15T20:31:55.623Z,40.90
2023-02-15T20:34:24.279Z,44.90
2023-02-15T20:36:52.657Z,47.80
2023-02-15T20:39:23.337Z,49.60
2023-02-15T20:41:54.725Z,51.00
2023-02-15T20:44:29.438Z,51.30
2023-02-15T20:46:59.704Z,51.90
2023-02-15T20:49:36.939Z,49.80
2023-02-15T20:52:20.603Z,47.10
2023-02-15T20:54:51.698Z,47.00
2023-02-15T20:57:20.052Z,51.50
2023-02-15T20:59:48.435Z,53.90
2023-02-15T21:02:20.550Z,53.20
2023-02-15T21:04:49.037Z,52.30
2023-02-15T21:07:21.722Z,49.10
2023-02-15T21:09:52.448Z,47.60
2023-02-15T21:12:21.252Z,46.60
2023-02-15T21:14:50.077Z,45.50
2023-02-15T21:17:18.577Z,44.60
2023-02-15T21:19:47.283Z,44.10
2023-02-15T21:22:18.697Z,43.20
2023-02-15T21:24:58.711Z,42.60
2023-02-15T21:27:31.674Z,42.30
2023-02-15T21:30:19.091Z,41.40
2023-02-15T21:32:59.473Z,41.00
2023-02-15T21:35:32.989Z,40.60
2023-02-15T21:38:08.119Z,41.20
2023-02-15T21:40:36.470Z,41.20
2023-02-15T21:43:13.971Z,40.70
2023-02-15T21:45:42.912Z,40.80
2023-02-15T21:48:13.647Z,40.10
2023-02-15T21:50:42.801Z,39.60
2023-02-15T21:53:15.265Z,39.10
2023-02-15T21:55:43.829Z,38.80
2023-02-15T21:58:33.283Z,39.20
2023-02-15T22:01:02.899Z,42.10
2023-02-15T22:03:37.050Z,45.70
2023-02-15T22:06:06.365Z,48.60
2023-02-15T22:08:34.967Z,50.60
2023-02-15T22:11:03.355Z,51.50
2023-02-15T22:13:32.769Z,52.20
2023-02-15T22:16:00.970Z,52.80
2023-02-15T22:18:34.022Z,51.90
2023-02-15T22:21:03.976Z,48.00
2023-02-15T22:23:32.713Z,46.80
2023-02-15T22:26:05.889Z,50.00
2023-02-15T22:28:39.627Z,54.40
2023-02-15T22:31:14.490Z,55.10
2023-02-15T22:33:43.266Z,54.10
2023-02-15T22:36:30.583Z,50.60
2023-02-15T22:38:59.382Z,48.80
2023-02-15T22:41:31.847Z,47.20
2023-02-15T22:44:00.328Z,46.30
2023-02-15T22:46:28.834Z,45.40
2023-02-15T22:48:57.135Z,44.70
2023-02-15T22:51:26.026Z,43.80
2023-02-15T22:53:54.515Z,43.00
2023-02-15T22:56:33.841Z,42.70
2023-02-15T22:59:05.343Z,41.90
2023-02-15T23:01:36.446Z,41.50
2023-02-15T23:04:05.670Z,41.20
2023-02-15T23:06:35.164Z,40.60
2023-02-15T23:09:03.771Z,40.20
2023-02-15T23:11:32.017Z,39.90
2023-02-15T23:14:00.955Z,39.70
2023-02-15T23:16:31.986Z,39.70
2023-02-15T23:19:13.431Z,39.30
2023-02-15T23:21:44.879Z,39.50
2023-02-15T23:24:27.637Z,38.80
2023-02-15T23:26:56.266Z,38.50
2023-02-15T23:29:28.044Z,38.30
2023-02-15T23:31:56.666Z,38.00
2023-02-15T23:34:29.751Z,37.40
2023-02-15T23:36:58.628Z,38.10
2023-02-15T23:39:28.030Z,40.60
2023-02-15T23:41:56.656Z,44.40
2023-02-15T23:44:25.168Z,47.30
2023-02-15T23:46:53.402Z,49.20
2023-02-15T23:49:22.077Z,50.80
2023-02-15T23:51:53.758Z,51.70
2023-02-15T23:54:24.446Z,51.90
2023-02-15T23:56:59.942Z,51.60
2023-02-15T23:59:31.298Z,49.50
